createdAt,value
2022-09-06T00:01:23.417Z,21.86
2022-09-06T00:03:50.984Z,21.82
2022-09-06T00:06:19.825Z,21.76
2022-09-06T00:08:47.886Z,21.72
2022-09-06T00:11:15.693Z,21.66
2022-09-06T00:13:42.563Z,21.64
2022-09-06T00:16:14.015Z,21.59
2022-09-06T00:18:41.600Z,21.61
2022-09-06T00:21:21.442Z,21.61
2022-09-06T00:23:48.301Z,21.55
2022-09-06T00:26:15.649Z,21.50
2022-09-06T00:28:42.791Z,21.53
2022-09-06T00:31:16.750Z,21.54
2022-09-06T00:33:43.650Z,21.54
2022-09-06T00:36:11.520Z,21.52
2022-09-06T00:38:38.719Z,21.52
2022-09-06T00:41:07.043Z,21.49
2022-09-06T00:43:33.700Z,21.39
2022-09-06T00:46:01.372Z,21.31
2022-09-06T00:48:28.262Z,21.24
2022-09-06T00:51:00.240Z,21.25
2022-09-06T00:53:27.558Z,21.27
2022-09-06T00:55:54.941Z,21.34
2022-09-06T00:58:22.290Z,21.38
2022-09-06T01:00:48.824Z,21.40
2022-09-06T01:03:15.739Z,21.41
2022-09-06T01:06:09.613Z,21.37
2022-09-06T01:09:04.783Z,21.29
2022-09-06T01:12:02.738Z,21.31
2022-09-06T01:14:58.692Z,21.31
2022-09-06T01:18:08.898Z,21.29
2022-09-06T01:21:10.014Z,21.30
2022-09-06T01:24:29.162Z,21.26
2022-09-06T01:27:21.506Z,21.23
2022-09-06T01:29:55.380Z,21.21
2022-09-06T01:32:33.282Z,21.21
2022-09-06T01:35:22.464Z,21.21
2022-09-06T01:37:49.241Z,21.19
2022-09-06T01:40:15.845Z,21.13
2022-09-06T01:42:45.427Z,21.09
2022-09-06T01:45:16.342Z,21.05
2022-09-06T01:48:17.121Z,21.03
2022-09-06T01:51:10.572Z,21.01
2022-09-06T01:53:51.072Z,21.00
2022-09-06T01:56:17.724Z,20.95
2022-09-06T01:59:06.146Z,20.94
2022-09-06T02:01:44.431Z,20.92
2022-09-06T02:04:32.021Z,20.89
2022-09-06T02:07:03.210Z,20.87
2022-09-06T02:09:35.253Z,20.81
2022-09-06T02:12:04.344Z,20.78
2022-09-06T02:14:39.729Z,20.74
2022-09-06T02:17:12.332Z,20.72
2022-09-06T02:19:54.984Z,20.71
2022-09-06T02:22:24.342Z,20.70
2022-09-06T02:24:53.916Z,20.66
2022-09-06T02:27:20.711Z,20.58
2022-09-06T02:29:48.304Z,20.53
2022-09-06T02:32:21.110Z,20.48
2022-09-06T02:34:50.340Z,20.44
2022-09-06T02:37:17.855Z,20.38
2022-09-06T02:39:44.702Z,20.33
2022-09-06T02:42:14.367Z,20.32
2022-09-06T02:44:41.045Z,20.30
2022-09-06T02:47:07.688Z,20.30
2022-09-06T02:49:34.678Z,20.29
2022-09-06T02:52:01.296Z,20.27
2022-09-06T02:54:27.822Z,20.27
2022-09-06T02:56:54.745Z,20.25
2022-09-06T02:59:21.220Z,20.25
2022-09-06T03:01:47.803Z,20.19
2022-09-06T03:04:14.397Z,20.17
2022-09-06T03:06:40.872Z,20.10
2022-09-06T03:09:07.375Z,20.04
2022-09-06T03:11:34.100Z,20.02
2022-09-06T03:14:00.805Z,20.01
2022-09-06T03:16:27.545Z,19.99
2022-09-06T03:18:54.209Z,19.97
2022-09-06T03:21:21.041Z,19.97
2022-09-06T03:23:47.564Z,19.92
2022-09-06T03:26:14.129Z,19.82
2022-09-06T03:28:41.192Z,19.77
2022-09-06T03:31:07.855Z,19.76
2022-09-06T03:33:34.550Z,19.76
2022-09-06T03:36:03.300Z,19.77
2022-09-06T03:38:30.477Z,19.74
2022-09-06T03:40:57.474Z,19.72
2022-09-06T03:43:25.369Z,19.69
2022-09-06T03:45:54.457Z,19.69
2022-09-06T03:48:22.864Z,19.72
2022-09-06T03:50:52.515Z,19.70
2022-09-06T03:53:19.355Z,19.67
2022-09-06T03:55:50.862Z,19.66
2022-09-06T03:58:19.109Z,19.64
2022-09-06T04:00:46.334Z,19.60
2022-09-06T04:03:13.264Z,19.54
2022-09-06T04:05:40.115Z,19.55
2022-09-06T04:08:07.123Z,19.54
2022-09-06T04:10:33.993Z,19.48
2022-09-06T04:13:00.519Z,19.43
2022-09-06T04:15:26.988Z,19.39
2022-09-06T04:17:53.762Z,19.34
2022-09-06T04:20:20.474Z,19.30
2022-09-06T04:22:47.038Z,19.34
2022-09-06T04:25:13.927Z,19.34
2022-09-06T04:27:40.619Z,19.32
2022-09-06T04:30:08.002Z,19.24
2022-09-06T04:32:34.647Z,19.20
2022-09-06T04:35:01.281Z,19.19
2022-09-06T04:37:28.317Z,19.15
2022-09-06T04:39:55.600Z,19.13
2022-09-06T04:42:22.182Z,19.14
2022-09-06T04:44:48.697Z,19.10
2022-09-06T04:47:18.205Z,19.07
2022-09-06T04:49:45.747Z,19.05
2022-09-06T04:52:12.485Z,19.05
2022-09-06T04:54:39.323Z,19.06
2022-09-06T04:57:06.167Z,19.03
2022-09-06T04:59:33.080Z,19.02
2022-09-06T05:01:59.896Z,19.04
2022-09-06T05:04:26.851Z,19.07
2022-09-06T05:07:06.017Z,19.11
2022-09-06T05:09:33.648Z,19.14
2022-09-06T05:12:00.822Z,19.15
2022-09-06T05:14:28.525Z,19.18
2022-09-06T05:16:55.165Z,19.18
2022-09-06T05:19:21.937Z,19.17
2022-09-06T05:21:48.810Z,19.14
2022-09-06T05:24:15.448Z,19.14
2022-09-06T05:26:42.092Z,19.11
2022-09-06T05:29:08.624Z,19.09
2022-09-06T05:31:35.836Z,19.09
2022-09-06T05:34:02.619Z,19.08
2022-09-06T05:36:30.868Z,19.08
2022-09-06T05:38:59.405Z,19.08
2022-09-06T05:41:26.895Z,19.05
2022-09-06T05:43:53.794Z,19.04
2022-09-06T05:46:20.962Z,19.05
2022-09-06T05:49:01.361Z,19.07
2022-09-06T05:51:27.952Z,19.09
2022-09-06T05:53:55.554Z,19.11
2022-09-06T05:56:22.622Z,19.12
2022-09-06T05:58:49.204Z,19.12
2022-09-06T06:01:35.812Z,19.14
2022-09-06T06:04:05.318Z,19.18
2022-09-06T06:06:34.067Z,19.21
2022-09-06T06:09:00.987Z,19.24
2022-09-06T06:11:28.234Z,19.27
2022-09-06T06:13:55.323Z,19.29
2022-09-06T06:16:23.171Z,19.30
2022-09-06T06:18:52.353Z,19.31
2022-09-06T06:21:25.574Z,19.37
2022-09-06T06:23:54.122Z,19.40
2022-09-06T06:26:22.072Z,19.44
2022-09-06T06:28:50.052Z,19.49
2022-09-06T06:31:16.782Z,19.54
2022-09-06T06:33:44.490Z,19.59
2022-09-06T06:36:16.310Z,19.66
2022-09-06T06:38:45.201Z,19.72
2022-09-06T06:41:14.520Z,19.80
2022-09-06T06:43:41.522Z,19.88
2022-09-06T06:46:16.244Z,19.94
2022-09-06T06:48:44.208Z,20.02
2022-09-06T06:51:14.993Z,20.13
2022-09-06T06:53:41.671Z,20.25
2022-09-06T06:56:22.187Z,20.28
2022-09-06T06:58:51.481Z,20.30
2022-09-06T07:01:20.560Z,20.31
2022-09-06T07:03:47.304Z,20.34
2022-09-06T07:06:16.977Z,20.36
2022-09-06T07:08:43.737Z,20.38
2022-09-06T07:11:12.300Z,20.41
2022-09-06T07:13:39.345Z,20.45
2022-09-06T07:16:20.947Z,20.47
2022-09-06T07:18:51.388Z,20.51
2022-09-06T07:21:41.712Z,20.54
2022-09-06T07:24:09.380Z,20.58
2022-09-06T07:26:38.505Z,20.64
2022-09-06T07:29:08.895Z,20.68
2022-09-06T07:34:25.794Z,20.77
2022-09-06T07:36:53.955Z,20.81
2022-09-06T07:39:20.979Z,20.87
2022-09-06T07:41:50.731Z,20.92
2022-09-06T07:44:17.449Z,20.98
2022-09-06T07:46:44.449Z,21.02
2022-09-06T07:49:11.139Z,21.08
2022-09-06T07:51:37.994Z,21.12
2022-09-06T07:54:28.796Z,21.16
2022-09-06T07:56:53.865Z,21.22
2022-09-06T07:59:20.611Z,21.26
2022-09-06T08:01:48.349Z,21.31
2022-09-06T08:04:15.658Z,21.36
2022-09-06T08:09:38.941Z,21.45
2022-09-06T08:12:08.849Z,21.49
2022-09-06T08:14:36.172Z,21.52
2022-09-06T08:17:05.058Z,21.56
2022-09-06T08:19:31.845Z,21.62
2022-09-06T08:21:58.814Z,21.67
2022-09-06T08:24:25.753Z,21.70
2022-09-06T08:26:52.852Z,21.75
2022-09-06T08:29:22.087Z,21.80
2022-09-06T08:31:49.311Z,21.87
2022-09-06T08:34:16.067Z,21.93
2022-09-06T08:36:42.955Z,22.00
2022-09-06T08:39:10.382Z,22.07
2022-09-06T08:41:57.905Z,22.16
2022-09-06T08:47:18.312Z,22.29
2022-09-06T08:49:52.910Z,22.35
2022-09-06T08:53:13.108Z,22.42
2022-09-06T08:55:55.711Z,22.51
2022-09-06T08:58:35.836Z,22.56
2022-09-06T09:01:08.182Z,22.62
2022-09-06T09:03:40.461Z,22.69
2022-09-06T09:06:10.393Z,22.74
2022-09-06T09:08:45.002Z,22.83
2022-09-06T09:11:18.730Z,22.92
2022-09-06T09:14:08.772Z,23.00
2022-09-06T09:16:35.883Z,23.09
2022-09-06T09:19:05.648Z,23.16
2022-09-06T09:21:36.474Z,23.26
2022-09-06T09:24:07.650Z,23.32
2022-09-06T09:26:44.747Z,23.40
2022-09-06T09:29:14.043Z,23.52
2022-09-06T09:31:53.736Z,23.54
2022-09-06T09:34:37.825Z,23.59
2022-09-06T09:40:05.306Z,23.75
2022-09-06T09:42:35.722Z,23.83
2022-09-06T09:45:06.925Z,23.90
2022-09-06T09:47:34.325Z,23.97
2022-09-06T09:50:01.505Z,24.05
2022-09-06T09:52:32.138Z,24.11
2022-09-06T09:55:05.148Z,24.17
2022-09-06T09:57:45.612Z,24.26
2022-09-06T10:00:13.356Z,24.34
2022-09-06T10:02:42.199Z,24.43
2022-09-06T10:05:19.128Z,24.51
2022-09-06T10:07:52.847Z,24.53
2022-09-06T10:10:25.047Z,24.59
2022-09-06T10:13:19.147Z,24.65
2022-09-06T10:15:46.637Z,24.72
2022-09-06T10:18:39.032Z,24.76
2022-09-06T10:21:16.066Z,24.82
2022-09-06T10:26:56.257Z,24.97
2022-09-06T10:29:53.368Z,25.03
2022-09-06T10:32:51.270Z,25.11
2022-09-06T10:35:41.672Z,25.17
2022-09-06T10:38:32.359Z,25.20
2022-09-06T10:41:25.171Z,25.22
2022-09-06T10:44:08.462Z,25.29
2022-09-06T10:46:36.337Z,25.32
2022-09-06T10:49:05.037Z,25.35
2022-09-06T10:51:54.620Z,25.39
2022-09-06T10:54:24.156Z,25.44
2022-09-06T11:00:06.792Z,25.61
2022-09-06T11:02:45.924Z,25.68
2022-09-06T11:11:19.792Z,25.94
2022-09-06T11:13:47.427Z,25.97
2022-09-06T11:16:28.359Z,26.00
2022-09-06T11:19:06.556Z,26.09
2022-09-06T11:21:51.251Z,26.18
2022-09-06T11:24:32.891Z,26.21
2022-09-06T11:27:14.083Z,26.24
2022-09-06T11:29:45.243Z,26.21
2022-09-06T11:32:35.146Z,26.28
2022-09-06T11:35:10.155Z,26.33
2022-09-06T11:37:40.945Z,26.35
2022-09-06T11:42:59.508Z,26.47
2022-09-06T11:45:50.671Z,26.54
2022-09-06T11:48:34.411Z,26.57
2022-09-06T11:51:03.332Z,26.64
2022-09-06T11:53:54.875Z,26.70
2022-09-06T11:56:42.704Z,26.77
2022-09-06T11:59:32.183Z,26.79
2022-09-06T12:02:03.025Z,26.81
2022-09-06T12:05:17.751Z,26.83
2022-09-06T12:08:20.089Z,26.85
2022-09-06T12:10:50.747Z,26.88
2022-09-06T12:13:39.826Z,26.95
2022-09-06T12:16:07.951Z,26.98
2022-09-06T12:18:51.969Z,27.07
2022-09-06T12:21:39.676Z,27.10
2022-09-06T12:24:34.786Z,27.09
2022-09-06T12:27:22.339Z,27.15
2022-09-06T12:29:54.636Z,27.19
2022-09-06T12:32:28.561Z,27.15
2022-09-06T12:38:05.026Z,27.23
2022-09-06T12:40:40.945Z,27.21
2022-09-06T12:43:10.653Z,27.21
2022-09-06T12:45:43.320Z,27.24
2022-09-06T12:48:13.446Z,27.20
2022-09-06T12:50:41.198Z,27.20
2022-09-06T12:53:25.799Z,27.21
2022-09-06T12:56:07.399Z,27.19
2022-09-06T12:58:35.866Z,27.25
2022-09-06T13:01:12.818Z,27.25
2022-09-06T13:03:43.468Z,27.24
2022-09-06T13:06:22.137Z,27.25
2022-09-06T13:08:55.694Z,27.24
2022-09-06T13:11:39.235Z,27.21
2022-09-06T13:14:17.480Z,27.29
2022-09-06T13:16:48.830Z,27.30
2022-09-06T13:19:19.022Z,27.33
2022-09-06T13:21:47.056Z,27.35
2022-09-06T13:24:49.928Z,27.37
2022-09-06T13:27:26.349Z,27.35
2022-09-06T13:30:00.828Z,27.38
2022-09-06T13:32:28.457Z,27.38
2022-09-06T13:34:59.106Z,27.40
2022-09-06T13:37:29.888Z,27.42
2022-09-06T13:39:57.843Z,27.49
2022-09-06T13:42:39.150Z,27.55
2022-09-06T13:45:28.891Z,27.53
2022-09-06T13:48:07.920Z,27.57
2022-09-06T13:50:42.431Z,27.61
2022-09-06T13:53:09.089Z,27.61
2022-09-06T13:55:37.908Z,27.63
2022-09-06T13:58:04.478Z,27.68
2022-09-06T14:00:31.394Z,27.69
2022-09-06T14:02:59.237Z,27.69
2022-09-06T14:05:25.997Z,27.70
2022-09-06T14:07:52.777Z,27.73
2022-09-06T14:10:21.811Z,27.77
2022-09-06T14:12:48.416Z,27.84
2022-09-06T14:15:15.212Z,27.85
2022-09-06T14:17:42.151Z,27.90
2022-09-06T14:20:09.405Z,27.93
2022-09-06T14:22:35.974Z,27.95
2022-09-06T14:25:02.621Z,27.98
2022-09-06T14:27:29.329Z,28.01
2022-09-06T14:29:56.365Z,28.03
2022-09-06T14:32:23.146Z,28.06
2022-09-06T14:34:49.771Z,28.10
2022-09-06T14:37:16.644Z,28.10
2022-09-06T14:39:43.691Z,28.12
2022-09-06T14:42:10.335Z,28.15
2022-09-06T14:44:37.081Z,28.16
2022-09-06T14:47:03.839Z,28.23
2022-09-06T14:49:32.975Z,28.26
2022-09-06T14:51:59.503Z,28.30
2022-09-06T14:54:29.322Z,28.31
2022-09-06T14:56:56.629Z,28.33
2022-09-06T14:59:23.377Z,28.33
2022-09-06T15:01:50.105Z,28.30
2022-09-06T15:04:19.467Z,28.28
2022-09-06T15:06:50.148Z,28.29
2022-09-06T15:09:18.099Z,28.34
2022-09-06T15:11:49.264Z,28.34
2022-09-06T15:14:19.460Z,28.31
2022-09-06T15:16:50.835Z,28.32
2022-09-06T15:19:20.018Z,28.33
2022-09-06T15:21:49.923Z,28.32
2022-09-06T15:24:16.635Z,28.29
2022-09-06T15:26:43.887Z,28.26
2022-09-06T15:29:13.251Z,28.21
2022-09-06T15:31:41.812Z,28.19
2022-09-06T15:34:09.880Z,28.17
2022-09-06T15:36:37.312Z,28.17
2022-09-06T15:39:05.029Z,28.18
2022-09-06T15:41:35.700Z,28.15
2022-09-06T15:44:08.109Z,28.11
2022-09-06T15:46:55.373Z,28.02
2022-09-06T15:49:28.653Z,28.00
2022-09-06T15:51:58.217Z,27.96
2022-09-06T15:54:45.676Z,27.95
2022-09-06T15:57:13.694Z,27.93
2022-09-06T15:59:41.148Z,27.84
2022-09-06T16:02:11.449Z,27.79
2022-09-06T16:04:38.371Z,27.75
2022-09-06T16:07:05.986Z,27.73
2022-09-06T16:09:34.850Z,27.69
2022-09-06T16:12:01.576Z,27.67
2022-09-06T16:14:29.133Z,27.63
2022-09-06T16:16:57.394Z,27.58
2022-09-06T16:19:25.980Z,27.54
2022-09-06T16:21:54.293Z,27.50
2022-09-06T16:24:21.384Z,27.44
2022-09-06T16:26:48.122Z,27.40
2022-09-06T16:29:16.594Z,27.36
2022-09-06T16:31:43.156Z,27.34
2022-09-06T16:34:11.030Z,27.30
2022-09-06T16:36:38.459Z,27.29
2022-09-06T16:39:05.738Z,27.28
2022-09-06T16:41:43.568Z,27.25
2022-09-06T16:44:16.852Z,27.21
2022-09-06T16:46:46.310Z,27.18
2022-09-06T16:49:16.883Z,27.13
2022-09-06T16:51:44.302Z,27.09
2022-09-06T16:54:11.107Z,27.02
2022-09-06T16:56:38.274Z,26.98
2022-09-06T16:59:07.067Z,26.94
2022-09-06T17:01:36.110Z,26.91
2022-09-06T17:04:04.081Z,26.87
2022-09-06T17:06:32.466Z,26.85
2022-09-06T17:08:59.475Z,26.82
2022-09-06T17:11:28.829Z,26.78
2022-09-06T17:13:56.553Z,26.74
2022-09-06T17:16:42.121Z,26.71
2022-09-06T17:19:10.262Z,26.66
2022-09-06T17:21:39.145Z,26.63
2022-09-06T17:24:07.555Z,26.59
2022-09-06T17:26:36.455Z,26.54
2022-09-06T17:29:04.414Z,26.49
2022-09-06T17:31:31.515Z,26.45
2022-09-06T17:33:59.824Z,26.44
2022-09-06T17:36:29.531Z,26.40
2022-09-06T17:39:12.142Z,26.38
2022-09-06T17:41:45.700Z,26.36
2022-09-06T17:44:14.526Z,26.35
2022-09-06T17:46:57.162Z,26.31
2022-09-06T17:49:29.130Z,26.25
2022-09-06T17:51:55.747Z,26.23
2022-09-06T17:54:22.623Z,26.23
2022-09-06T17:56:49.342Z,26.26
2022-09-06T17:59:16.324Z,26.28
2022-09-06T18:01:44.689Z,26.28
2022-09-06T18:04:12.700Z,26.27
2022-09-06T18:06:41.330Z,26.24
2022-09-06T18:09:11.997Z,26.22
2022-09-06T18:11:40.075Z,26.21
2022-09-06T18:14:10.201Z,26.21
2022-09-06T18:16:39.386Z,26.17
2022-09-06T18:19:07.649Z,26.14
2022-09-06T18:21:37.921Z,26.12
2022-09-06T18:24:05.153Z,26.06
2022-09-06T18:26:32.061Z,25.99
2022-09-06T18:28:59.665Z,25.94
2022-09-06T18:31:27.616Z,25.92
2022-09-06T18:33:58.088Z,25.92
2022-09-06T18:36:29.925Z,25.89
2022-09-06T18:39:02.874Z,25.86
2022-09-06T18:41:48.194Z,25.83
2022-09-06T18:44:15.128Z,25.79
2022-09-06T18:46:42.125Z,25.73
2022-09-06T18:49:11.195Z,25.60
2022-09-06T18:51:39.575Z,25.51
2022-09-06T18:54:07.256Z,25.43
2022-09-06T18:56:33.804Z,25.38
2022-09-06T18:59:02.321Z,25.35
2022-09-06T19:01:30.451Z,25.32
2022-09-06T19:03:58.256Z,25.28
2022-09-06T19:06:25.812Z,25.19
2022-09-06T19:08:53.742Z,25.11
2022-09-06T19:11:22.041Z,25.07
2022-09-06T19:13:55.071Z,24.99
2022-09-06T19:16:23.338Z,24.94
2022-09-06T19:18:50.766Z,24.87
2022-09-06T19:21:19.426Z,24.77
2022-09-06T19:23:50.300Z,24.71
2022-09-06T19:26:20.308Z,24.74
2022-09-06T19:28:55.935Z,24.77
2022-09-06T19:31:24.571Z,24.77
2022-09-06T19:33:51.828Z,24.75
2022-09-06T19:36:20.079Z,24.73
2022-09-06T19:39:03.027Z,24.69
2022-09-06T19:41:31.806Z,24.61
2022-09-06T19:43:59.011Z,24.49
2022-09-06T19:46:26.678Z,24.32
2022-09-06T19:48:56.269Z,24.21
2022-09-06T19:51:24.007Z,24.16
2022-09-06T19:53:53.278Z,24.09
2022-09-06T19:56:23.569Z,24.04
2022-09-06T19:59:00.349Z,24.03
2022-09-06T20:01:29.707Z,24.08
2022-09-06T20:03:58.036Z,24.08
2022-09-06T20:06:25.385Z,24.08
2022-09-06T20:08:55.198Z,24.06
2022-09-06T20:11:23.590Z,24.04
2022-09-06T20:13:50.762Z,24.04
2022-09-06T20:16:20.610Z,24.04
2022-09-06T20:18:48.601Z,24.03
2022-09-06T20:21:17.854Z,24.02
2022-09-06T20:23:50.949Z,23.98
2022-09-06T20:26:18.508Z,23.94
2022-09-06T20:28:45.448Z,23.91
2022-09-06T20:31:18.639Z,23.86
2022-09-06T20:33:49.460Z,23.84
2022-09-06T20:36:17.366Z,23.81
2022-09-06T20:38:45.503Z,23.81
2022-09-06T20:41:13.537Z,23.79
2022-09-06T20:43:41.170Z,23.78
2022-09-06T20:46:12.211Z,23.76
2022-09-06T20:48:44.240Z,23.74
2022-09-06T20:51:15.057Z,23.76
2022-09-06T20:53:41.983Z,23.68
2022-09-06T20:56:18.346Z,23.57
2022-09-06T20:58:53.942Z,23.48
2022-09-06T21:01:24.106Z,23.33
2022-09-06T21:03:54.118Z,23.26
2022-09-06T21:11:21.771Z,23.02
2022-09-06T21:13:52.305Z,22.96
2022-09-06T21:16:24.334Z,22.94
2022-09-06T21:18:53.163Z,23.00
2022-09-06T21:21:20.086Z,23.05
2022-09-06T21:23:46.616Z,23.08
2022-09-06T21:26:15.897Z,23.10
2022-09-06T21:28:43.165Z,23.10
2022-09-06T21:31:22.434Z,23.10
2022-09-06T21:33:52.793Z,23.09
2022-09-06T21:36:30.187Z,23.10
2022-09-06T21:39:12.372Z,23.13
2022-09-06T21:41:41.076Z,23.13
2022-09-06T21:44:08.523Z,23.13
2022-09-06T21:46:37.772Z,23.13
2022-09-06T21:49:10.184Z,23.13
2022-09-06T21:51:36.945Z,23.15
2022-09-06T21:54:05.476Z,23.15
2022-09-06T21:56:34.405Z,23.15
2022-09-06T21:59:01.916Z,23.15
2022-09-06T22:01:33.929Z,23.13
2022-09-06T22:04:00.937Z,23.13
2022-09-06T22:06:29.159Z,23.11
2022-09-06T22:08:57.667Z,23.11
2022-09-06T22:11:28.854Z,23.12
2022-09-06T22:13:59.753Z,23.13
2022-09-06T22:16:28.077Z,23.10
2022-09-06T22:18:55.068Z,23.02
2022-09-06T22:21:22.120Z,22.93
2022-09-06T22:23:51.739Z,22.69
2022-09-06T22:26:19.824Z,22.57
2022-09-06T22:28:47.364Z,22.48
2022-09-06T22:31:14.358Z,22.44
2022-09-06T22:33:41.032Z,22.38
2022-09-06T22:36:07.823Z,22.21
2022-09-06T22:38:34.962Z,21.97
2022-09-06T22:41:01.854Z,21.65
2022-09-06T22:43:28.572Z,21.21
2022-09-06T22:46:02.556Z,20.54
2022-09-06T22:48:29.171Z,19.80
2022-09-06T22:50:55.911Z,19.10
2022-09-06T22:53:25.631Z,18.74
2022-09-06T22:55:52.143Z,18.56
2022-09-06T22:58:19.047Z,18.34
2022-09-06T23:00:45.884Z,18.02
2022-09-06T23:03:12.741Z,17.90
2022-09-06T23:05:39.480Z,17.66
2022-09-06T23:08:06.117Z,17.58
2022-09-06T23:10:33.112Z,17.51
2022-09-06T23:12:59.819Z,17.42
2022-09-06T23:15:26.367Z,17.40
2022-09-06T23:17:52.926Z,17.35
2022-09-06T23:20:19.521Z,17.26
2022-09-06T23:22:48.506Z,17.24
2022-09-06T23:25:15.092Z,17.25
2022-09-06T23:27:41.831Z,17.24
2022-09-06T23:30:09.200Z,17.22
2022-09-06T23:32:35.835Z,17.17
2022-09-06T23:35:02.523Z,17.20
2022-09-06T23:37:29.241Z,17.24
2022-09-06T23:39:55.962Z,17.21
2022-09-06T23:42:23.119Z,17.24
2022-09-06T23:44:51.231Z,17.19
2022-09-06T23:47:17.763Z,17.13
2022-09-06T23:49:45.428Z,17.07
2022-09-06T23:52:12.000Z,17.00
2022-09-06T23:54:38.696Z,17.02
2022-09-06T23:57:05.278Z,16.94
2022-09-06T23:59:32.708Z,16.94
